createdAt,value
2023-04-07T00:00:26.771Z,63.50
2023-04-07T00:02:53.508Z,66.50
2023-04-07T00:05:20.130Z,64.90
2023-04-07T00:07:55.880Z,64.80
2023-04-07T00:10:23.427Z,63.30
2023-04-07T00:12:49.879Z,64.20
2023-04-07T00:15:16.500Z,63.50
2023-04-07T00:17:43.040Z,62.10
2023-04-07T00:20:09.731Z,62.70
2023-04-07T00:22:36.187Z,62.40
2023-04-07T00:25:02.634Z,63.90
2023-04-07T00:27:29.146Z,65.00
2023-04-07T00:29:55.756Z,65.10
2023-04-07T00:32:22.588Z,65.20
2023-04-07T00:34:49.149Z,64.50
2023-04-07T00:37:15.665Z,62.60
2023-04-07T00:39:42.220Z,63.10
2023-04-07T00:42:08.691Z,63.80
2023-04-07T00:44:35.217Z,64.60
2023-04-07T00:47:01.803Z,64.90
2023-04-07T00:49:28.423Z,64.20
2023-04-07T00:51:55.974Z,64.40
2023-04-07T00:54:25.307Z,63.20
2023-04-07T00:56:52.857Z,62.60
2023-04-07T00:59:19.514Z,63.50
2023-04-07T01:01:58.349Z,63.10
2023-04-07T01:04:32.036Z,63.90
2023-04-07T01:07:06.198Z,62.90
2023-04-07T01:09:42.789Z,63.00
2023-04-07T01:12:18.060Z,66.70
2023-04-07T01:14:50.946Z,64.90
2023-04-07T01:17:18.909Z,64.50
2023-04-07T01:19:45.390Z,61.90
2023-04-07T01:22:21.017Z,62.20
2023-04-07T01:25:06.438Z,62.60
2023-04-07T01:27:32.920Z,61.90
2023-04-07T01:30:01.033Z,61.60
2023-04-07T01:32:27.903Z,61.30
2023-04-07T01:34:55.307Z,61.90
2023-04-07T01:37:22.353Z,62.00
2023-04-07T01:39:48.817Z,62.20
2023-04-07T01:42:15.547Z,63.20
2023-04-07T01:44:42.632Z,62.70
2023-04-07T01:47:09.476Z,63.00
2023-04-07T01:49:36.583Z,62.80
2023-04-07T01:52:04.405Z,62.20
2023-04-07T01:54:31.504Z,63.10
2023-04-07T01:56:58.012Z,62.80
2023-04-07T01:59:24.851Z,63.80
2023-04-07T02:01:51.550Z,62.90
2023-04-07T02:04:27.206Z,61.80
2023-04-07T02:06:55.934Z,62.50
2023-04-07T02:09:24.230Z,63.80
2023-04-07T02:11:52.586Z,65.20
2023-04-07T02:14:21.276Z,65.10
2023-04-07T02:16:49.165Z,65.30
2023-04-07T02:19:15.786Z,67.80
2023-04-07T02:21:43.594Z,66.90
2023-04-07T02:24:11.537Z,67.30
2023-04-07T02:26:38.270Z,67.00
2023-04-07T02:29:04.931Z,67.80
2023-04-07T02:31:31.651Z,66.90
2023-04-07T02:33:58.164Z,65.40
2023-04-07T02:36:24.640Z,67.60
2023-04-07T02:38:51.391Z,68.00
2023-04-07T02:41:18.248Z,68.50
2023-04-07T02:43:44.715Z,66.20
2023-04-07T02:46:11.243Z,67.00
2023-04-07T02:48:37.828Z,68.20
2023-04-07T02:51:04.347Z,66.90
2023-04-07T02:53:31.081Z,65.60
2023-04-07T02:55:57.542Z,66.00
2023-04-07T02:58:24.028Z,66.00
2023-04-07T03:00:51.009Z,66.30
2023-04-07T03:03:20.961Z,67.50
2023-04-07T03:05:47.607Z,66.50
2023-04-07T03:08:14.132Z,67.10
2023-04-07T03:10:40.844Z,67.50
2023-04-07T03:13:08.317Z,67.70
2023-04-07T03:15:34.895Z,66.70
2023-04-07T03:18:01.425Z,66.90
2023-04-07T03:20:27.921Z,69.10
2023-04-07T03:22:54.378Z,68.00
2023-04-07T03:25:21.475Z,68.50
2023-04-07T03:27:47.964Z,68.30
2023-04-07T03:30:14.582Z,68.90
2023-04-07T03:32:41.102Z,67.80
2023-04-07T03:35:07.918Z,67.90
2023-04-07T03:37:34.439Z,68.20
2023-04-07T03:40:01.158Z,68.40
2023-04-07T03:42:27.729Z,67.80
2023-04-07T03:44:54.211Z,68.30
2023-04-07T03:47:20.687Z,69.60
2023-04-07T03:49:47.182Z,68.50
2023-04-07T03:52:13.642Z,68.70
2023-04-07T03:54:40.343Z,69.80
2023-04-07T03:57:06.912Z,70.00
2023-04-07T03:59:33.403Z,69.90
2023-04-07T04:02:00.123Z,69.30
2023-04-07T04:04:26.738Z,69.20
2023-04-07T04:06:53.307Z,68.10
2023-04-07T04:09:20.760Z,69.20
2023-04-07T04:11:47.229Z,69.30
2023-04-07T04:14:13.718Z,70.30
2023-04-07T04:16:40.210Z,70.60
2023-04-07T04:19:06.711Z,70.50
2023-04-07T04:21:33.206Z,70.40
2023-04-07T04:23:59.644Z,70.40
2023-04-07T04:26:26.251Z,70.60
2023-04-07T04:28:53.015Z,70.30
2023-04-07T04:31:19.548Z,70.10
2023-04-07T04:33:46.381Z,69.90
2023-04-07T04:36:13.234Z,71.30
2023-04-07T04:38:39.785Z,70.30
2023-04-07T04:41:06.249Z,69.90
2023-04-07T04:43:32.704Z,70.10
2023-04-07T04:45:59.216Z,70.90
2023-04-07T04:48:25.699Z,71.30
2023-04-07T04:50:52.177Z,71.40
2023-04-07T04:53:18.617Z,71.80
2023-04-07T04:55:48.026Z,72.20
2023-04-07T04:58:14.479Z,73.20
2023-04-07T05:00:41.155Z,73.80
2023-04-07T05:03:07.807Z,73.30
2023-04-07T05:05:34.481Z,73.70
2023-04-07T05:08:01.022Z,74.60
2023-04-07T05:10:27.481Z,76.00
2023-04-07T05:12:54.010Z,74.80
2023-04-07T05:15:20.734Z,74.60
2023-04-07T05:17:50.563Z,75.00
2023-04-07T05:20:17.425Z,74.80
2023-04-07T05:22:43.945Z,76.30
2023-04-07T05:25:10.731Z,74.80
2023-04-07T05:27:37.211Z,76.10
2023-04-07T05:30:03.825Z,74.60
2023-04-07T05:32:30.354Z,74.70
2023-04-07T05:34:56.926Z,74.90
2023-04-07T05:37:23.378Z,74.40
2023-04-07T05:39:49.987Z,74.80
2023-04-07T05:42:16.460Z,74.50
2023-04-07T05:44:42.923Z,74.30
2023-04-07T05:47:09.452Z,74.70
2023-04-07T05:49:35.899Z,74.00
2023-04-07T05:52:06.064Z,74.10
2023-04-07T05:54:32.539Z,73.40
2023-04-07T05:56:59.016Z,73.80
2023-04-07T05:59:25.470Z,74.80
2023-04-07T06:01:51.997Z,74.10
2023-04-07T06:04:18.641Z,74.90
2023-04-07T06:06:45.281Z,74.40
2023-04-07T06:09:11.839Z,74.40
2023-04-07T06:11:38.329Z,74.70
2023-04-07T06:14:04.800Z,74.50
2023-04-07T06:16:31.412Z,73.30
2023-04-07T06:18:57.989Z,73.60
2023-04-07T06:21:25.354Z,72.70
2023-04-07T06:23:52.058Z,72.80
2023-04-07T06:26:18.633Z,72.30
2023-04-07T06:28:45.323Z,73.00
2023-04-07T06:31:11.799Z,73.60
2023-04-07T06:33:38.287Z,72.10
2023-04-07T06:36:04.844Z,72.10
2023-04-07T06:38:31.697Z,72.20
2023-04-07T06:40:58.181Z,70.90
2023-04-07T06:43:24.662Z,72.30
2023-04-07T06:45:51.269Z,71.70
2023-04-07T06:48:17.775Z,70.20
2023-04-07T06:50:47.500Z,71.10
2023-04-07T06:53:14.065Z,70.80
2023-04-07T06:55:40.746Z,70.40
2023-04-07T06:58:07.352Z,70.90
2023-04-07T07:00:33.870Z,70.70
2023-04-07T07:03:00.943Z,70.10
2023-04-07T07:05:27.645Z,69.60
2023-04-07T07:07:54.105Z,69.90
2023-04-07T07:10:22.450Z,68.40
2023-04-07T07:12:49.374Z,68.70
2023-04-07T07:15:15.954Z,69.80
2023-04-07T07:17:42.691Z,71.20
2023-04-07T07:20:09.519Z,72.10
2023-04-07T07:22:36.197Z,73.40
2023-04-07T07:25:03.283Z,74.20
2023-04-07T07:27:29.773Z,75.10
2023-04-07T07:29:56.373Z,74.10
